Aviation Digital Data Service (ADDS)

Output produced by METARs form (1755 UTC 24 June 2019)
found at http://www.aviationweather.gov/metar/data/
 
METAR text: VVDN 241730Z 22001KT 9999 FEW015 29/25 Q1007 NOSIG
Conditions at: VVDN (DA NANG INTL ARP, VN) observed 1730 UTC 24 June 2019
Temperature: 29.0°C (84°F)
Dewpoint: 25.0°C (77°F) [RH = 79%]
Pressure (altimeter): 29.73 inches Hg (1007.0 mb)
Winds: from the SW (220 degrees) at 1 MPH (1 knots; 0.5 m/s)
Visibility: 6 or more miles (10+ km)
Ceiling: at least 12,000 feet AGL
Clouds: few clouds at 1500 feet AGL
Weather: no significant weather observed at this time

METAR text: VVDN 241700Z 22002KT 9999 FEW015 29/25 Q1007 NOSIG
Conditions at: VVDN (DA NANG INTL ARP, VN) observed 1700 UTC 24 June 2019
Temperature: 29.0°C (84°F)
Dewpoint: 25.0°C (77°F) [RH = 79%]
Pressure (altimeter): 29.73 inches Hg (1007.0 mb)
Winds: from the SW (220 degrees) at 2 MPH (2 knots; 1.0 m/s)
Visibility: 6 or more miles (10+ km)
Ceiling: at least 12,000 feet AGL
Clouds: few clouds at 1500 feet AGL
Weather: no significant weather observed at this time

METAR text: VVDN 241630Z 21003KT 160V240 9999 FEW015 30/25 Q1007 NOSIG
Conditions at: VVDN (DA NANG INTL ARP, VN) observed 1630 UTC 24 June 2019
Temperature: 30.0°C (86°F)
Dewpoint: 25.0°C (77°F) [RH = 75%]
Pressure (altimeter): 29.73 inches Hg (1007.0 mb)
Winds: from the SSW (210 degrees) at 3 MPH (3 knots; 1.5 m/s)
Visibility: 6 or more miles (10+ km)
Ceiling: at least 12,000 feet AGL
Clouds: few clouds at 1500 feet AGL
Weather: no significant weather observed at this time

METAR text: VVDN 241600Z 22003KT 9999 FEW015 29/25 Q1008 NOSIG
Conditions at: VVDN (DA NANG INTL ARP, VN) observed 1600 UTC 24 June 2019
Temperature: 29.0°C (84°F)
Dewpoint: 25.0°C (77°F) [RH = 79%]
Pressure (altimeter): 29.76 inches Hg (1008.0 mb)
Winds: from the SW (220 degrees) at 3 MPH (3 knots; 1.5 m/s)
Visibility: 6 or more miles (10+ km)
Ceiling: at least 12,000 feet AGL
Clouds: few clouds at 1500 feet AGL
Weather: no significant weather observed at this time

METAR text: VVDN 241530Z 21004KT 9999 FEW015 29/25 Q1008 NOSIG
Conditions at: VVDN (DA NANG INTL ARP, VN) observed 1530 UTC 24 June 2019
Temperature: 29.0°C (84°F)
Dewpoint: 25.0°C (77°F) [RH = 79%]
Pressure (altimeter): 29.76 inches Hg (1008.0 mb)
Winds: from the SSW (210 degrees) at 5 MPH (4 knots; 2.1 m/s)
Visibility: 6 or more miles (10+ km)
Ceiling: at least 12,000 feet AGL
Clouds: few clouds at 1500 feet AGL
Weather: no significant weather observed at this time

METAR text: VVDN 241500Z 19004KT 9999 FEW015 31/24 Q1008 NOSIG
Conditions at: VVDN (DA NANG INTL ARP, VN) observed 1500 UTC 24 June 2019
Temperature: 31.0°C (88°F)
Dewpoint: 24.0°C (75°F) [RH = 66%]
Pressure (altimeter): 29.76 inches Hg (1008.0 mb)
Winds: from the S (190 degrees) at 5 MPH (4 knots; 2.1 m/s)
Visibility: 6 or more miles (10+ km)
Ceiling: at least 12,000 feet AGL
Clouds: few clouds at 1500 feet AGL
Weather: no significant weather observed at this time

METAR text: VVDN 241430Z 18003KT 140V210 9999 FEW015 30/25 Q1008 NOSIG
Conditions at: VVDN (DA NANG INTL ARP, VN) observed 1430 UTC 24 June 2019
Temperature: 30.0°C (86°F)
Dewpoint: 25.0°C (77°F) [RH = 75%]
Pressure (altimeter): 29.76 inches Hg (1008.0 mb)
Winds: from the S (180 degrees) at 3 MPH (3 knots; 1.5 m/s)
Visibility: 6 or more miles (10+ km)
Ceiling: at least 12,000 feet AGL
Clouds: few clouds at 1500 feet AGL
Weather: no significant weather observed at this time

METAR text: VVDN 241400Z 20002KT 9999 FEW015 FEW017CB 30/25 Q1008 NOSIG
Conditions at: VVDN (DA NANG INTL ARP, VN) observed 1400 UTC 24 June 2019
Temperature: 30.0°C (86°F)
Dewpoint: 25.0°C (77°F) [RH = 75%]
Pressure (altimeter): 29.76 inches Hg (1008.0 mb)
Winds: from the SSW (200 degrees) at 2 MPH (2 knots; 1.0 m/s)
Visibility: 6 or more miles (10+ km)
Ceiling: at least 12,000 feet AGL
Clouds: few clouds at 1500 feet AGL
few clouds at 1700 feet AGL
Weather: no significant weather observed at this time

METAR text: VVDN 241330Z 19003KT 8000 FEW015 FEW017CB SCT060 31/25 Q1007 NOSIG
Conditions at: VVDN (DA NANG INTL ARP, VN) observed 1330 UTC 24 June 2019
Temperature: 31.0°C (88°F)
Dewpoint: 25.0°C (77°F) [RH = 71%]
Pressure (altimeter): 29.73 inches Hg (1007.0 mb)
Winds: from the S (190 degrees) at 3 MPH (3 knots; 1.5 m/s)
Visibility: 5 miles ( 8 km)
Ceiling: at least 12,000 feet AGL
Clouds: few clouds at 1500 feet AGL
few clouds at 1700 feet AGL
scattered clouds at 6000 feet AGL
Weather: no significant weather observed at this time

METAR text: VVDN 241300Z 18003KT 8000 FEW015 FEW017CB SCT060 31/25 Q1007 NOSIG
Conditions at: VVDN (DA NANG INTL ARP, VN) observed 1300 UTC 24 June 2019
Temperature: 31.0°C (88°F)
Dewpoint: 25.0°C (77°F) [RH = 71%]
Pressure (altimeter): 29.73 inches Hg (1007.0 mb)
Winds: from the S (180 degrees) at 3 MPH (3 knots; 1.5 m/s)
Visibility: 5 miles ( 8 km)
Ceiling: at least 12,000 feet AGL
Clouds: few clouds at 1500 feet AGL
few clouds at 1700 feet AGL
scattered clouds at 6000 feet AGL
Weather: no significant weather observed at this time

METAR text: VVDN 241230Z 16003KT 8000 FEW015 FEW017CB SCT060 31/25 Q1007 NOSIG
Conditions at: VVDN (DA NANG INTL ARP, VN) observed 1230 UTC 24 June 2019
Temperature: 31.0°C (88°F)
Dewpoint: 25.0°C (77°F) [RH = 71%]
Pressure (altimeter): 29.73 inches Hg (1007.0 mb)
Winds: from the SSE (160 degrees) at 3 MPH (3 knots; 1.5 m/s)
Visibility: 5 miles ( 8 km)
Ceiling: at least 12,000 feet AGL
Clouds: few clouds at 1500 feet AGL
few clouds at 1700 feet AGL
scattered clouds at 6000 feet AGL
Weather: no significant weather observed at this time

METAR text: VVDN 240930Z 03006KT 9999 TS FEW015 FEW017CB 34/26 Q1005 NOSIG
Conditions at: VVDN (DA NANG INTL ARP, VN) observed 0930 UTC 24 June 2019
Temperature: 34.0°C (93°F)
Dewpoint: 26.0°C (79°F) [RH = 63%]
Pressure (altimeter): 29.68 inches Hg (1005.0 mb)
Winds: from the NNE (30 degrees) at 7 MPH (6 knots; 3.1 m/s)
Visibility: 6 or more miles (10+ km)
Ceiling: at least 12,000 feet AGL
Clouds: few clouds at 1500 feet AGL
few clouds at 1700 feet AGL
Weather: TS  (thunderstorm)

METAR text: VVDN 240900Z 01011KT 9999 TS FEW015 FEW017CB 34/26 Q1004 NOSIG
Conditions at: VVDN (DA NANG INTL ARP, VN) observed 0900 UTC 24 June 2019
Temperature: 34.0°C (93°F)
Dewpoint: 26.0°C (79°F) [RH = 63%]
Pressure (altimeter): 29.65 inches Hg (1004.0 mb)
Winds: from the N (10 degrees) at 13 MPH (11 knots; 5.7 m/s)
Visibility: 6 or more miles (10+ km)
Ceiling: at least 12,000 feet AGL
Clouds: few clouds at 1500 feet AGL
few clouds at 1700 feet AGL
Weather: TS  (thunderstorm)

METAR text: VVDN 240830Z 35013KT 9999 FEW015 FEW017CB 35/24 Q1004 NOSIG
Conditions at: VVDN (DA NANG INTL ARP, VN) observed 0830 UTC 24 June 2019
Temperature: 35.0°C (95°F)
Dewpoint: 24.0°C (75°F) [RH = 53%]
Pressure (altimeter): 29.65 inches Hg (1004.0 mb)
Winds: from the N (350 degrees) at 15 MPH (13 knots; 6.7 m/s)
Visibility: 6 or more miles (10+ km)
Ceiling: at least 12,000 feet AGL
Clouds: few clouds at 1500 feet AGL
few clouds at 1700 feet AGL
Weather: no significant weather observed at this time

METAR text: VVDN 240800Z 35010KT 9999 FEW015 FEW017CB 35/24 Q1004 NOSIG
Conditions at: VVDN (DA NANG INTL ARP, VN) observed 0800 UTC 24 June 2019
Temperature: 35.0°C (95°F)
Dewpoint: 24.0°C (75°F) [RH = 53%]
Pressure (altimeter): 29.65 inches Hg (1004.0 mb)
Winds: from the N (350 degrees) at 12 MPH (10 knots; 5.1 m/s)
Visibility: 6 or more miles (10+ km)
Ceiling: at least 12,000 feet AGL
Clouds: few clouds at 1500 feet AGL
few clouds at 1700 feet AGL
Weather: no significant weather observed at this time

METAR text: VVDN 240730Z 35011KT 9999 FEW015 FEW017TCU 35/25 Q1004 NOSIG
Conditions at: VVDN (DA NANG INTL ARP, VN) observed 0730 UTC 24 June 2019
Temperature: 35.0°C (95°F)
Dewpoint: 25.0°C (77°F) [RH = 56%]
Pressure (altimeter): 29.65 inches Hg (1004.0 mb)
Winds: from the N (350 degrees) at 13 MPH (11 knots; 5.7 m/s)
Visibility: 6 or more miles (10+ km)
Ceiling: at least 12,000 feet AGL
Clouds: few clouds at 1500 feet AGL
few clouds at 1700 feet AGL
Weather: no significant weather observed at this time

METAR text: VVDN 240700Z 35011KT 9999 FEW015 FEW017TCU 36/27 Q1004 NOSIG
Conditions at: VVDN (DA NANG INTL ARP, VN) observed 0700 UTC 24 June 2019
Temperature: 36.0°C (97°F)
Dewpoint: 27.0°C (81°F) [RH = 60%]
Pressure (altimeter): 29.65 inches Hg (1004.0 mb)
Winds: from the N (350 degrees) at 13 MPH (11 knots; 5.7 m/s)
Visibility: 6 or more miles (10+ km)
Ceiling: at least 12,000 feet AGL
Clouds: few clouds at 1500 feet AGL
few clouds at 1700 feet AGL
Weather: no significant weather observed at this time

METAR text: VVDN 240630Z 33009KT 9999 FEW017TCU 35/27 Q1005 NOSIG
Conditions at: VVDN (DA NANG INTL ARP, VN) observed 0630 UTC 24 June 2019
Temperature: 35.0°C (95°F)
Dewpoint: 27.0°C (81°F) [RH = 63%]
Pressure (altimeter): 29.68 inches Hg (1005.0 mb)
Winds: from the NNW (330 degrees) at 10 MPH (9 knots; 4.6 m/s)
Visibility: 6 or more miles (10+ km)
Ceiling: at least 12,000 feet AGL
Clouds: few clouds at 1700 feet AGL
Weather: no significant weather observed at this time

METAR text: VVDN 240600Z 35008KT 9999 FEW015 35/27 Q1005 NOSIG
Conditions at: VVDN (DA NANG INTL ARP, VN) observed 0600 UTC 24 June 2019
Temperature: 35.0°C (95°F)
Dewpoint: 27.0°C (81°F) [RH = 63%]
Pressure (altimeter): 29.68 inches Hg (1005.0 mb)
Winds: from the N (350 degrees) at 9 MPH (8 knots; 4.1 m/s)
Visibility: 6 or more miles (10+ km)
Ceiling: at least 12,000 feet AGL
Clouds: few clouds at 1500 feet AGL
Weather: no significant weather observed at this time

METAR text: VVDN 240530Z 35010KT 9999 FEW015 36/27 Q1005 NOSIG
Conditions at: VVDN (DA NANG INTL ARP, VN) observed 0530 UTC 24 June 2019
Temperature: 36.0°C (97°F)
Dewpoint: 27.0°C (81°F) [RH = 60%]
Pressure (altimeter): 29.68 inches Hg (1005.0 mb)
Winds: from the N (350 degrees) at 12 MPH (10 knots; 5.1 m/s)
Visibility: 6 or more miles (10+ km)
Ceiling: at least 12,000 feet AGL
Clouds: few clouds at 1500 feet AGL
Weather: no significant weather observed at this time

METAR text: VVDN 240500Z 28005KT 200V320 9999 FEW015 36/27 Q1005 NOSIG
Conditions at: VVDN (DA NANG INTL ARP, VN) observed 0500 UTC 24 June 2019
Temperature: 36.0°C (97°F)
Dewpoint: 27.0°C (81°F) [RH = 60%]
Pressure (altimeter): 29.68 inches Hg (1005.0 mb)
Winds: from the W (280 degrees) at 6 MPH (5 knots; 2.6 m/s)
Visibility: 6 or more miles (10+ km)
Ceiling: at least 12,000 feet AGL
Clouds: few clouds at 1500 feet AGL
Weather: no significant weather observed at this time

METAR text: VVDN 240430Z 20005KT 160V250 9999 FEW015 38/24 Q1005 NOSIG
Conditions at: VVDN (DA NANG INTL ARP, VN) observed 0430 UTC 24 June 2019
Temperature: 38.0°C (100°F)
Dewpoint: 24.0°C (75°F) [RH = 45%]
Pressure (altimeter): 29.68 inches Hg (1005.0 mb)
Winds: from the SSW (200 degrees) at 6 MPH (5 knots; 2.6 m/s)
Visibility: 6 or more miles (10+ km)
Ceiling: at least 12,000 feet AGL
Clouds: few clouds at 1500 feet AGL
Weather: no significant weather observed at this time

METAR text: VVDN 240400Z 19005KT 150V220 9999 FEW015 38/24 Q1005 NOSIG
Conditions at: VVDN (DA NANG INTL ARP, VN) observed 0400 UTC 24 June 2019
Temperature: 38.0°C (100°F)
Dewpoint: 24.0°C (75°F) [RH = 45%]
Pressure (altimeter): 29.68 inches Hg (1005.0 mb)
Winds: from the S (190 degrees) at 6 MPH (5 knots; 2.6 m/s)
Visibility: 6 or more miles (10+ km)
Ceiling: at least 12,000 feet AGL
Clouds: few clouds at 1500 feet AGL
Weather: no significant weather observed at this time

METAR text: VVDN 240330Z 19004KT 130V260 9999 FEW015 38/23 Q1006 NOSIG
Conditions at: VVDN (DA NANG INTL ARP, VN) observed 0330 UTC 24 June 2019
Temperature: 38.0°C (100°F)
Dewpoint: 23.0°C (73°F) [RH = 42%]
Pressure (altimeter): 29.70 inches Hg (1006.0 mb)
Winds: from the S (190 degrees) at 5 MPH (4 knots; 2.1 m/s)
Visibility: 6 or more miles (10+ km)
Ceiling: at least 12,000 feet AGL
Clouds: few clouds at 1500 feet AGL
Weather: no significant weather observed at this time

METAR text: VVDN 240300Z 21004KT 150V270 9999 FEW015 37/23 Q1006 NOSIG
Conditions at: VVDN (DA NANG INTL ARP, VN) observed 0300 UTC 24 June 2019
Temperature: 37.0°C (99°F)
Dewpoint: 23.0°C (73°F) [RH = 45%]
Pressure (altimeter): 29.70 inches Hg (1006.0 mb)
Winds: from the SSW (210 degrees) at 5 MPH (4 knots; 2.1 m/s)
Visibility: 6 or more miles (10+ km)
Ceiling: at least 12,000 feet AGL
Clouds: few clouds at 1500 feet AGL
Weather: no significant weather observed at this time

METAR text: VVDN 240230Z VRB02KT 9999 FEW015 37/24 Q1006 NOSIG
Conditions at: VVDN (DA NANG INTL ARP, VN) observed 0230 UTC 24 June 2019
Temperature: 37.0°C (99°F)
Dewpoint: 24.0°C (75°F) [RH = 48%]
Pressure (altimeter): 29.70 inches Hg (1006.0 mb)
Winds: variable direction winds at 2 MPH (2 knots; 1.0 m/s)
Visibility: 6 or more miles (10+ km)
Ceiling: at least 12,000 feet AGL
Clouds: few clouds at 1500 feet AGL
Weather: no significant weather observed at this time

METAR text: VVDN 240200Z VRB01KT 9999 FEW015 36/23 Q1006 NOSIG
Conditions at: VVDN (DA NANG INTL ARP, VN) observed 0200 UTC 24 June 2019
Temperature: 36.0°C (97°F)
Dewpoint: 23.0°C (73°F) [RH = 47%]
Pressure (altimeter): 29.70 inches Hg (1006.0 mb)
Winds: variable direction winds at 1 MPH (1 knots; 0.5 m/s)
Visibility: 6 or more miles (10+ km)
Ceiling: at least 12,000 feet AGL
Clouds: few clouds at 1500 feet AGL
Weather: no significant weather observed at this time

METAR text: VVDN 240130Z VRB02KT 9999 FEW015 34/24 Q1006 NOSIG
Conditions at: VVDN (DA NANG INTL ARP, VN) observed 0130 UTC 24 June 2019
Temperature: 34.0°C (93°F)
Dewpoint: 24.0°C (75°F) [RH = 56%]
Pressure (altimeter): 29.70 inches Hg (1006.0 mb)
Winds: variable direction winds at 2 MPH (2 knots; 1.0 m/s)
Visibility: 6 or more miles (10+ km)
Ceiling: at least 12,000 feet AGL
Clouds: few clouds at 1500 feet AGL
Weather: no significant weather observed at this time

METAR text: VVDN 240100Z 18003KT 110V230 9999 FEW015 33/25 Q1006 NOSIG
Conditions at: VVDN (DA NANG INTL ARP, VN) observed 0100 UTC 24 June 2019
Temperature: 33.0°C (91°F)
Dewpoint: 25.0°C (77°F) [RH = 63%]
Pressure (altimeter): 29.70 inches Hg (1006.0 mb)
Winds: from the S (180 degrees) at 3 MPH (3 knots; 1.5 m/s)
Visibility: 6 or more miles (10+ km)
Ceiling: at least 12,000 feet AGL
Clouds: few clouds at 1500 feet AGL
Weather: no significant weather observed at this time

METAR text: VVDN 240030Z 00000KT 9999 FEW015 32/24 Q1006 NOSIG
Conditions at: VVDN (DA NANG INTL ARP, VN) observed 0030 UTC 24 June 2019
Temperature: 32.0°C (90°F)
Dewpoint: 24.0°C (75°F) [RH = 63%]
Pressure (altimeter): 29.70 inches Hg (1006.0 mb)
Winds: calm
Visibility: 6 or more miles (10+ km)
Ceiling: at least 12,000 feet AGL
Clouds: few clouds at 1500 feet AGL
Weather: no significant weather observed at this time

METAR text: VVDN 240000Z 19001KT 9999 FEW015 30/25 Q1006 NOSIG
Conditions at: VVDN (DA NANG INTL ARP, VN) observed 0000 UTC 24 June 2019
Temperature: 30.0°C (86°F)
Dewpoint: 25.0°C (77°F) [RH = 75%]
Pressure (altimeter): 29.70 inches Hg (1006.0 mb)
Winds: from the S (190 degrees) at 1 MPH (1 knots; 0.5 m/s)
Visibility: 6 or more miles (10+ km)
Ceiling: at least 12,000 feet AGL
Clouds: few clouds at 1500 feet AGL
Weather: no significant weather observed at this time

METAR text: VVDN 232330Z 19001KT 9999 FEW015 30/25 Q1006 NOSIG
Conditions at: VVDN (DA NANG INTL ARP, VN) observed 2330 UTC 23 June 2019
Temperature: 30.0°C (86°F)
Dewpoint: 25.0°C (77°F) [RH = 75%]
Pressure (altimeter): 29.70 inches Hg (1006.0 mb)
Winds: from the S (190 degrees) at 1 MPH (1 knots; 0.5 m/s)
Visibility: 6 or more miles (10+ km)
Ceiling: at least 12,000 feet AGL
Clouds: few clouds at 1500 feet AGL
Weather: no significant weather observed at this time

METAR text: VVDN 232300Z 00000KT 9999 FEW015 29/24 Q1005 NOSIG
Conditions at: VVDN (DA NANG INTL ARP, VN) observed 2300 UTC 23 June 2019
Temperature: 29.0°C (84°F)
Dewpoint: 24.0°C (75°F) [RH = 74%]
Pressure (altimeter): 29.68 inches Hg (1005.0 mb)
Winds: calm
Visibility: 6 or more miles (10+ km)
Ceiling: at least 12,000 feet AGL
Clouds: few clouds at 1500 feet AGL
Weather: no significant weather observed at this time

METAR text: VVDN 232230Z VRB01KT 9999 FEW015 28/24 Q1005 NOSIG
Conditions at: VVDN (DA NANG INTL ARP, VN) observed 2230 UTC 23 June 2019
Temperature: 28.0°C (82°F)
Dewpoint: 24.0°C (75°F) [RH = 79%]
Pressure (altimeter): 29.68 inches Hg (1005.0 mb)
Winds: variable direction winds at 1 MPH (1 knots; 0.5 m/s)
Visibility: 6 or more miles (10+ km)
Ceiling: at least 12,000 feet AGL
Clouds: few clouds at 1500 feet AGL
Weather: no significant weather observed at this time

METAR text: VVDN 232200Z 20002KT 9999 FEW015 28/24 Q1005 NOSIG
Conditions at: VVDN (DA NANG INTL ARP, VN) observed 2200 UTC 23 June 2019
Temperature: 28.0°C (82°F)
Dewpoint: 24.0°C (75°F) [RH = 79%]
Pressure (altimeter): 29.68 inches Hg (1005.0 mb)
Winds: from the SSW (200 degrees) at 2 MPH (2 knots; 1.0 m/s)
Visibility: 6 or more miles (10+ km)
Ceiling: at least 12,000 feet AGL
Clouds: few clouds at 1500 feet AGL
Weather: no significant weather observed at this time

METAR text: VVDN 232130Z 24001KT 9999 FEW015 28/24 Q1005 NOSIG
Conditions at: VVDN (DA NANG INTL ARP, VN) observed 2130 UTC 23 June 2019
Temperature: 28.0°C (82°F)
Dewpoint: 24.0°C (75°F) [RH = 79%]
Pressure (altimeter): 29.68 inches Hg (1005.0 mb)
Winds: from the WSW (240 degrees) at 1 MPH (1 knots; 0.5 m/s)
Visibility: 6 or more miles (10+ km)
Ceiling: at least 12,000 feet AGL
Clouds: few clouds at 1500 feet AGL
Weather: no significant weather observed at this time

METAR text: VVDN 232100Z 20003KT 9999 FEW015 28/25 Q1005 NOSIG
Conditions at: VVDN (DA NANG INTL ARP, VN) observed 2100 UTC 23 June 2019
Temperature: 28.0°C (82°F)
Dewpoint: 25.0°C (77°F) [RH = 84%]
Pressure (altimeter): 29.68 inches Hg (1005.0 mb)
Winds: from the SSW (200 degrees) at 3 MPH (3 knots; 1.5 m/s)
Visibility: 6 or more miles (10+ km)
Ceiling: at least 12,000 feet AGL
Clouds: few clouds at 1500 feet AGL
Weather: no significant weather observed at this time

METAR text: VVDN 232030Z 17002KT 9999 FEW015 29/25 Q1005 NOSIG
Conditions at: VVDN (DA NANG INTL ARP, VN) observed 2030 UTC 23 June 2019
Temperature: 29.0°C (84°F)
Dewpoint: 25.0°C (77°F) [RH = 79%]
Pressure (altimeter): 29.68 inches Hg (1005.0 mb)
Winds: from the S (170 degrees) at 2 MPH (2 knots; 1.0 m/s)
Visibility: 6 or more miles (10+ km)
Ceiling: at least 12,000 feet AGL
Clouds: few clouds at 1500 feet AGL
Weather: no significant weather observed at this time

METAR text: VVDN 232000Z 19001KT 9999 FEW015 29/25 Q1005 NOSIG
Conditions at: VVDN (DA NANG INTL ARP, VN) observed 2000 UTC 23 June 2019
Temperature: 29.0°C (84°F)
Dewpoint: 25.0°C (77°F) [RH = 79%]
Pressure (altimeter): 29.68 inches Hg (1005.0 mb)
Winds: from the S (190 degrees) at 1 MPH (1 knots; 0.5 m/s)
Visibility: 6 or more miles (10+ km)
Ceiling: at least 12,000 feet AGL
Clouds: few clouds at 1500 feet AGL
Weather: no significant weather observed at this time

METAR text: VVDN 231930Z 19002KT 9999 FEW015 29/24 Q1005 NOSIG
Conditions at: VVDN (DA NANG INTL ARP, VN) observed 1930 UTC 23 June 2019
Temperature: 29.0°C (84°F)
Dewpoint: 24.0°C (75°F) [RH = 74%]
Pressure (altimeter): 29.68 inches Hg (1005.0 mb)
Winds: from the S (190 degrees) at 2 MPH (2 knots; 1.0 m/s)
Visibility: 6 or more miles (10+ km)
Ceiling: at least 12,000 feet AGL
Clouds: few clouds at 1500 feet AGL
Weather: no significant weather observed at this time

METAR text: VVDN 231900Z 22002KT 9999 FEW015 29/25 Q1005 NOSIG
Conditions at: VVDN (DA NANG INTL ARP, VN) observed 1900 UTC 23 June 2019
Temperature: 29.0°C (84°F)
Dewpoint: 25.0°C (77°F) [RH = 79%]
Pressure (altimeter): 29.68 inches Hg (1005.0 mb)
Winds: from the SW (220 degrees) at 2 MPH (2 knots; 1.0 m/s)
Visibility: 6 or more miles (10+ km)
Ceiling: at least 12,000 feet AGL
Clouds: few clouds at 1500 feet AGL
Weather: no significant weather observed at this time

METAR text: VVDN 231830Z 19001KT 9999 FEW015 29/25 Q1005 NOSIG
Conditions at: VVDN (DA NANG INTL ARP, VN) observed 1830 UTC 23 June 2019
Temperature: 29.0°C (84°F)
Dewpoint: 25.0°C (77°F) [RH = 79%]
Pressure (altimeter): 29.68 inches Hg (1005.0 mb)
Winds: from the S (190 degrees) at 1 MPH (1 knots; 0.5 m/s)
Visibility: 6 or more miles (10+ km)
Ceiling: at least 12,000 feet AGL
Clouds: few clouds at 1500 feet AGL
Weather: no significant weather observed at this time

METAR text: VVDN 231800Z 22003KT 9999 FEW015 29/25 Q1005 NOSIG
Conditions at: VVDN (DA NANG INTL ARP, VN) observed 1800 UTC 23 June 2019
Temperature: 29.0°C (84°F)
Dewpoint: 25.0°C (77°F) [RH = 79%]
Pressure (altimeter): 29.68 inches Hg (1005.0 mb)
Winds: from the SW (220 degrees) at 3 MPH (3 knots; 1.5 m/s)
Visibility: 6 or more miles (10+ km)
Ceiling: at least 12,000 feet AGL
Clouds: few clouds at 1500 feet AGL
Weather: no significant weather observed at this time

METAR text: VVDN 231730Z 20002KT 9999 FEW015 29/25 Q1005 NOSIG
Conditions at: VVDN (DA NANG INTL ARP, VN) observed 1730 UTC 23 June 2019
Temperature: 29.0°C (84°F)
Dewpoint: 25.0°C (77°F) [RH = 79%]
Pressure (altimeter): 29.68 inches Hg (1005.0 mb)
Winds: from the SSW (200 degrees) at 2 MPH (2 knots; 1.0 m/s)
Visibility: 6 or more miles (10+ km)
Ceiling: at least 12,000 feet AGL
Clouds: few clouds at 1500 feet AGL
Weather: no significant weather observed at this time

METAR text: VVDN 231700Z 25001KT 9999 FEW015 29/26 Q1006 NOSIG
Conditions at: VVDN (DA NANG INTL ARP, VN) observed 1700 UTC 23 June 2019
Temperature: 29.0°C (84°F)
Dewpoint: 26.0°C (79°F) [RH = 84%]
Pressure (altimeter): 29.70 inches Hg (1006.0 mb)
Winds: from the WSW (250 degrees) at 1 MPH (1 knots; 0.5 m/s)
Visibility: 6 or more miles (10+ km)
Ceiling: at least 12,000 feet AGL
Clouds: few clouds at 1500 feet AGL
Weather: no significant weather observed at this time

METAR text: VVDN 231630Z 20002KT 9999 FEW015 30/26 Q1006 NOSIG
Conditions at: VVDN (DA NANG INTL ARP, VN) observed 1630 UTC 23 June 2019
Temperature: 30.0°C (86°F)
Dewpoint: 26.0°C (79°F) [RH = 79%]
Pressure (altimeter): 29.70 inches Hg (1006.0 mb)
Winds: from the SSW (200 degrees) at 2 MPH (2 knots; 1.0 m/s)
Visibility: 6 or more miles (10+ km)
Ceiling: at least 12,000 feet AGL
Clouds: few clouds at 1500 feet AGL
Weather: no significant weather observed at this time

METAR text: VVDN 231600Z VRB01KT 9999 FEW015 30/27 Q1006 NOSIG
Conditions at: VVDN (DA NANG INTL ARP, VN) observed 1600 UTC 23 June 2019
Temperature: 30.0°C (86°F)
Dewpoint: 27.0°C (81°F) [RH = 84%]
Pressure (altimeter): 29.70 inches Hg (1006.0 mb)
Winds: variable direction winds at 1 MPH (1 knots; 0.5 m/s)
Visibility: 6 or more miles (10+ km)
Ceiling: at least 12,000 feet AGL
Clouds: few clouds at 1500 feet AGL
Weather: no significant weather observed at this time

METAR text: VVDN 231530Z VRB01KT 9999 FEW015 30/27 Q1006 NOSIG
Conditions at: VVDN (DA NANG INTL ARP, VN) observed 1530 UTC 23 June 2019
Temperature: 30.0°C (86°F)
Dewpoint: 27.0°C (81°F) [RH = 84%]
Pressure (altimeter): 29.70 inches Hg (1006.0 mb)
Winds: variable direction winds at 1 MPH (1 knots; 0.5 m/s)
Visibility: 6 or more miles (10+ km)
Ceiling: at least 12,000 feet AGL
Clouds: few clouds at 1500 feet AGL
Weather: no significant weather observed at this time

METAR text: VVDN 231500Z VRB01KT 9999 FEW015 30/27 Q1006 NOSIG
Conditions at: VVDN (DA NANG INTL ARP, VN) observed 1500 UTC 23 June 2019
Temperature: 30.0°C (86°F)
Dewpoint: 27.0°C (81°F) [RH = 84%]
Pressure (altimeter): 29.70 inches Hg (1006.0 mb)
Winds: variable direction winds at 1 MPH (1 knots; 0.5 m/s)
Visibility: 6 or more miles (10+ km)
Ceiling: at least 12,000 feet AGL
Clouds: few clouds at 1500 feet AGL
Weather: no significant weather observed at this time

METAR text: VVDN 231430Z VRB02KT 9999 FEW015 30/27 Q1006 NOSIG
Conditions at: VVDN (DA NANG INTL ARP, VN) observed 1430 UTC 23 June 2019
Temperature: 30.0°C (86°F)
Dewpoint: 27.0°C (81°F) [RH = 84%]
Pressure (altimeter): 29.70 inches Hg (1006.0 mb)
Winds: variable direction winds at 2 MPH (2 knots; 1.0 m/s)
Visibility: 6 or more miles (10+ km)
Ceiling: at least 12,000 feet AGL
Clouds: few clouds at 1500 feet AGL
Weather: no significant weather observed at this time

METAR text: VVDN 231400Z 04003KT 360V080 9999 FEW015 30/27 Q1006 NOSIG
Conditions at: VVDN (DA NANG INTL ARP, VN) observed 1400 UTC 23 June 2019
Temperature: 30.0°C (86°F)
Dewpoint: 27.0°C (81°F) [RH = 84%]
Pressure (altimeter): 29.70 inches Hg (1006.0 mb)
Winds: from the NE (40 degrees) at 3 MPH (3 knots; 1.5 m/s)
Visibility: 6 or more miles (10+ km)
Ceiling: at least 12,000 feet AGL
Clouds: few clouds at 1500 feet AGL
Weather: no significant weather observed at this time

METAR text: VVDN 231330Z 05002KT 9999 FEW015 30/26 Q1005 NOSIG
Conditions at: VVDN (DA NANG INTL ARP, VN) observed 1330 UTC 23 June 2019
Temperature: 30.0°C (86°F)
Dewpoint: 26.0°C (79°F) [RH = 79%]
Pressure (altimeter): 29.68 inches Hg (1005.0 mb)
Winds: from the NE (50 degrees) at 2 MPH (2 knots; 1.0 m/s)
Visibility: 6 or more miles (10+ km)
Ceiling: at least 12,000 feet AGL
Clouds: few clouds at 1500 feet AGL
Weather: no significant weather observed at this time

METAR text: VVDN 231300Z VRB02KT 9999 FEW015 31/26 Q1005 NOSIG
Conditions at: VVDN (DA NANG INTL ARP, VN) observed 1300 UTC 23 June 2019
Temperature: 31.0°C (88°F)
Dewpoint: 26.0°C (79°F) [RH = 75%]
Pressure (altimeter): 29.68 inches Hg (1005.0 mb)
Winds: variable direction winds at 2 MPH (2 knots; 1.0 m/s)
Visibility: 6 or more miles (10+ km)
Ceiling: at least 12,000 feet AGL
Clouds: few clouds at 1500 feet AGL
Weather: no significant weather observed at this time

METAR text: VVDN 231230Z VRB01KT 9999 FEW015 31/26 Q1004 NOSIG
Conditions at: VVDN (DA NANG INTL ARP, VN) observed 1230 UTC 23 June 2019
Temperature: 31.0°C (88°F)
Dewpoint: 26.0°C (79°F) [RH = 75%]
Pressure (altimeter): 29.65 inches Hg (1004.0 mb)
Winds: variable direction winds at 1 MPH (1 knots; 0.5 m/s)
Visibility: 6 or more miles (10+ km)
Ceiling: at least 12,000 feet AGL
Clouds: few clouds at 1500 feet AGL
Weather: no significant weather observed at this time

METAR text: VVDN 231200Z 10003KT 030V150 9999 FEW015 31/25 Q1004 NOSIG
Conditions at: VVDN (DA NANG INTL ARP, VN) observed 1200 UTC 23 June 2019
Temperature: 31.0°C (88°F)
Dewpoint: 25.0°C (77°F) [RH = 71%]
Pressure (altimeter): 29.65 inches Hg (1004.0 mb)
Winds: from the E (100 degrees) at 3 MPH (3 knots; 1.5 m/s)
Visibility: 6 or more miles (10+ km)
Ceiling: at least 12,000 feet AGL
Clouds: few clouds at 1500 feet AGL
Weather: no significant weather observed at this time

METAR text: VVDN 231130Z 11003KT 050V140 9999 FEW015 31/25 Q1004 NOSIG
Conditions at: VVDN (DA NANG INTL ARP, VN) observed 1130 UTC 23 June 2019
Temperature: 31.0°C (88°F)
Dewpoint: 25.0°C (77°F) [RH = 71%]
Pressure (altimeter): 29.65 inches Hg (1004.0 mb)
Winds: from the ESE (110 degrees) at 3 MPH (3 knots; 1.5 m/s)
Visibility: 6 or more miles (10+ km)
Ceiling: at least 12,000 feet AGL
Clouds: few clouds at 1500 feet AGL
Weather: no significant weather observed at this time

METAR text: VVDN 231100Z 10005KT 050V130 9999 FEW015 31/26 Q1003 NOSIG
Conditions at: VVDN (DA NANG INTL ARP, VN) observed 1100 UTC 23 June 2019
Temperature: 31.0°C (88°F)
Dewpoint: 26.0°C (79°F) [RH = 75%]
Pressure (altimeter): 29.62 inches Hg (1003.0 mb)
Winds: from the E (100 degrees) at 6 MPH (5 knots; 2.6 m/s)
Visibility: 6 or more miles (10+ km)
Ceiling: at least 12,000 feet AGL
Clouds: few clouds at 1500 feet AGL
Weather: no significant weather observed at this time

METAR text: VVDN 231030Z 09007KT 050V130 9999 FEW015 FEW017CB 32/25 Q1003 NOSIG
Conditions at: VVDN (DA NANG INTL ARP, VN) observed 1030 UTC 23 June 2019
Temperature: 32.0°C (90°F)
Dewpoint: 25.0°C (77°F) [RH = 67%]
Pressure (altimeter): 29.62 inches Hg (1003.0 mb)
Winds: from the E (90 degrees) at 8 MPH (7 knots; 3.6 m/s)
Visibility: 6 or more miles (10+ km)
Ceiling: at least 12,000 feet AGL
Clouds: few clouds at 1500 feet AGL
few clouds at 1700 feet AGL
Weather: no significant weather observed at this time

METAR text: VVDN 231000Z 10006KT 070V140 9999 FEW015 FEW017CB 33/25 Q1003 NOSIG
Conditions at: VVDN (DA NANG INTL ARP, VN) observed 1000 UTC 23 June 2019
Temperature: 33.0°C (91°F)
Dewpoint: 25.0°C (77°F) [RH = 63%]
Pressure (altimeter): 29.62 inches Hg (1003.0 mb)
Winds: from the E (100 degrees) at 7 MPH (6 knots; 3.1 m/s)
Visibility: 6 or more miles (10+ km)
Ceiling: at least 12,000 feet AGL
Clouds: few clouds at 1500 feet AGL
few clouds at 1700 feet AGL
Weather: no significant weather observed at this time

METAR text: VVDN 230930Z 10007KT 9999 FEW015 FEW017CB 33/24 Q1003 NOSIG
Conditions at: VVDN (DA NANG INTL ARP, VN) observed 0930 UTC 23 June 2019
Temperature: 33.0°C (91°F)
Dewpoint: 24.0°C (75°F) [RH = 59%]
Pressure (altimeter): 29.62 inches Hg (1003.0 mb)
Winds: from the E (100 degrees) at 8 MPH (7 knots; 3.6 m/s)
Visibility: 6 or more miles (10+ km)
Ceiling: at least 12,000 feet AGL
Clouds: few clouds at 1500 feet AGL
few clouds at 1700 feet AGL
Weather: no significant weather observed at this time

METAR text: VVDN 230900Z 12008KT 060V140 9999 FEW015 FEW017TCU 34/24 Q1003 NOSIG
Conditions at: VVDN (DA NANG INTL ARP, VN) observed 0900 UTC 23 June 2019
Temperature: 34.0°C (93°F)
Dewpoint: 24.0°C (75°F) [RH = 56%]
Pressure (altimeter): 29.62 inches Hg (1003.0 mb)
Winds: from the ESE (120 degrees) at 9 MPH (8 knots; 4.1 m/s)
Visibility: 6 or more miles (10+ km)
Ceiling: at least 12,000 feet AGL
Clouds: few clouds at 1500 feet AGL
few clouds at 1700 feet AGL
Weather: no significant weather observed at this time

METAR text: VVDN 230830Z 10009KT 9999 FEW015 FEW017TCU 34/25 Q1002 NOSIG
Conditions at: VVDN (DA NANG INTL ARP, VN) observed 0830 UTC 23 June 2019
Temperature: 34.0°C (93°F)
Dewpoint: 25.0°C (77°F) [RH = 60%]
Pressure (altimeter): 29.59 inches Hg (1002.0 mb)
Winds: from the E (100 degrees) at 10 MPH (9 knots; 4.6 m/s)
Visibility: 6 or more miles (10+ km)
Ceiling: at least 12,000 feet AGL
Clouds: few clouds at 1500 feet AGL
few clouds at 1700 feet AGL
Weather: no significant weather observed at this time

METAR text: VVDN 230800Z 10008KT 9999 FEW015 FEW017TCU 36/24 Q1002 NOSIG
Conditions at: VVDN (DA NANG INTL ARP, VN) observed 0800 UTC 23 June 2019
Temperature: 36.0°C (97°F)
Dewpoint: 24.0°C (75°F) [RH = 50%]
Pressure (altimeter): 29.59 inches Hg (1002.0 mb)
Winds: from the E (100 degrees) at 9 MPH (8 knots; 4.1 m/s)
Visibility: 6 or more miles (10+ km)
Ceiling: at least 12,000 feet AGL
Clouds: few clouds at 1500 feet AGL
few clouds at 1700 feet AGL
Weather: no significant weather observed at this time

METAR text: VVDN 230730Z 12008KT 9999 FEW015 FEW017TCU 37/24 Q1002 NOSIG
Conditions at: VVDN (DA NANG INTL ARP, VN) observed 0730 UTC 23 June 2019
Temperature: 37.0°C (99°F)
Dewpoint: 24.0°C (75°F) [RH = 48%]
Pressure (altimeter): 29.59 inches Hg (1002.0 mb)
Winds: from the ESE (120 degrees) at 9 MPH (8 knots; 4.1 m/s)
Visibility: 6 or more miles (10+ km)
Ceiling: at least 12,000 feet AGL
Clouds: few clouds at 1500 feet AGL
few clouds at 1700 feet AGL
Weather: no significant weather observed at this time

METAR text: VVDN 230700Z 11008KT 070V140 9999 FEW015 FEW017TCU 36/25 Q1003 NOSIG
Conditions at: VVDN (DA NANG INTL ARP, VN) observed 0700 UTC 23 June 2019
Temperature: 36.0°C (97°F)
Dewpoint: 25.0°C (77°F) [RH = 53%]
Pressure (altimeter): 29.62 inches Hg (1003.0 mb)
Winds: from the ESE (110 degrees) at 9 MPH (8 knots; 4.1 m/s)
Visibility: 6 or more miles (10+ km)
Ceiling: at least 12,000 feet AGL
Clouds: few clouds at 1500 feet AGL
few clouds at 1700 feet AGL
Weather: no significant weather observed at this time

METAR text: VVDN 230630Z 11008KT 040V140 9999 FEW017 35/24 Q1003 NOSIG
Conditions at: VVDN (DA NANG INTL ARP, VN) observed 0630 UTC 23 June 2019
Temperature: 35.0°C (95°F)
Dewpoint: 24.0°C (75°F) [RH = 53%]
Pressure (altimeter): 29.62 inches Hg (1003.0 mb)
Winds: from the ESE (110 degrees) at 9 MPH (8 knots; 4.1 m/s)
Visibility: 6 or more miles (10+ km)
Ceiling: at least 12,000 feet AGL
Clouds: few clouds at 1700 feet AGL
Weather: no significant weather observed at this time

METAR text: VVDN 230600Z 08008KT 9999 FEW017 36/25 Q1004 NOSIG
Conditions at: VVDN (DA NANG INTL ARP, VN) observed 0600 UTC 23 June 2019
Temperature: 36.0°C (97°F)
Dewpoint: 25.0°C (77°F) [RH = 53%]
Pressure (altimeter): 29.65 inches Hg (1004.0 mb)
Winds: from the E (80 degrees) at 9 MPH (8 knots; 4.1 m/s)
Visibility: 6 or more miles (10+ km)
Ceiling: at least 12,000 feet AGL
Clouds: few clouds at 1700 feet AGL
Weather: no significant weather observed at this time

Forecast for: VVDN (DA NANG INTL ARP, VN)
Text: TAF VVDN 241700Z 2418/2518 22004KT 9999 FEW015
Forecast period: 1800 UTC 24 June 2019 to 0300 UTC 25 June 2019
Forecast type: FROM: standard forecast or significant change
Winds: from the SW (220 degrees) at 5 MPH (4 knots; 2.1 m/s)
Visibility: 6 or more miles 10+ km)
Ceiling: at least 12,000 feet AGL
Clouds: few clouds at 1500 feet AGL
Weather: no significant weather forecast for this period
Text: BECMG 2503/2504 07010KT
Forecast period: 0300 to 1800 UTC 25 June 2019
Forecast type: BECOMING: Conditions expected to become as follows by 0400 UTC 25 June 2019
Winds: from the ENE (70 degrees) at 12 MPH (10 knots; 5.1 m/s)
Visibility: 6 or more miles 10+ km)
Ceiling: at least 12,000 feet AGL
Clouds: few clouds at 1500 feet AGL
Weather: no significant weather forecast for this period
Text: TEMPO 2509/2512 TS FEW013 FEW015CB SCT060
Forecast period: 0900 to 1200 UTC 25 June 2019
Forecast type: TEMPORARY: The following changes expected for less than half the time period
Visibility: missing
Ceiling: at least 12,000 feet AGL
Clouds: few clouds at 1300 feet AGL
few clouds at 1500 feet AGL
scattered clouds at 6000 feet AGL
Weather: TS  (thunderstorm)